createdAt,value
2023-05-14T00:01:54.927Z,94.70
2023-05-14T00:04:22.482Z,94.50
2023-05-14T00:06:49.429Z,94.40
2023-05-14T00:09:16.803Z,94.20
2023-05-14T00:11:43.717Z,94.20
2023-05-14T00:14:10.617Z,94.30
2023-05-14T00:16:37.650Z,94.40
2023-05-14T00:19:04.764Z,94.50
2023-05-14T00:21:32.380Z,94.70
2023-05-14T00:23:59.291Z,94.90
2023-05-14T00:26:26.200Z,95.10
2023-05-14T00:28:53.071Z,95.40
2023-05-14T00:31:20.000Z,95.50
2023-05-14T00:33:46.934Z,95.40
2023-05-14T00:36:13.792Z,95.40
2023-05-14T00:38:40.714Z,95.50
2023-05-14T00:41:07.647Z,95.70
2023-05-14T00:43:34.506Z,95.90
2023-05-14T00:46:01.553Z,96.20
2023-05-14T00:48:28.413Z,96.50
2023-05-14T00:50:55.852Z,96.70
2023-05-14T00:53:22.902Z,96.80
2023-05-14T00:55:50.575Z,96.80
2023-05-14T00:58:19.476Z,97.00
2023-05-14T01:00:46.485Z,97.20
2023-05-14T01:03:13.510Z,97.20
2023-05-14T01:06:14.756Z,97.40
2023-05-14T01:09:09.044Z,97.60
2023-05-14T01:11:56.202Z,97.80
2023-05-14T01:14:54.460Z,98.00
2023-05-14T01:17:24.020Z,98.00
2023-05-14T01:19:52.260Z,98.10
2023-05-14T01:22:19.121Z,98.30
2023-05-14T01:24:46.101Z,98.40
2023-05-14T01:27:38.061Z,98.60
2023-05-14T01:30:10.992Z,98.80
2023-05-14T01:32:40.102Z,99.00
2023-05-14T01:35:09.709Z,99.10
2023-05-14T01:37:38.110Z,99.40
2023-05-14T01:40:06.475Z,99.60
2023-05-14T01:42:33.565Z,99.90
2023-05-14T01:45:00.895Z,99.90
2023-05-14T01:47:27.826Z,99.90
2023-05-14T01:49:54.699Z,99.90
2023-05-14T01:52:21.656Z,99.90
2023-05-14T01:54:48.906Z,99.90
2023-05-14T01:57:15.818Z,99.90
2023-05-14T01:59:42.702Z,99.90
2023-05-14T02:02:09.600Z,99.90
2023-05-14T02:04:36.500Z,99.90
2023-05-14T02:07:03.319Z,99.90
2023-05-14T02:09:30.930Z,99.90
2023-05-14T02:11:57.806Z,99.90
2023-05-14T02:14:24.683Z,99.90
2023-05-14T02:16:51.635Z,99.90
2023-05-14T02:19:18.965Z,99.90
2023-05-14T02:21:45.992Z,99.90
2023-05-14T02:24:12.848Z,99.90
2023-05-14T02:26:39.816Z,99.90
2023-05-14T02:29:06.694Z,99.90
2023-05-14T02:31:34.051Z,99.90
2023-05-14T02:34:05.405Z,99.90
2023-05-14T02:36:32.664Z,99.90
2023-05-14T02:39:01.250Z,99.90
2023-05-14T02:41:28.130Z,99.90
2023-05-14T02:43:55.044Z,99.90
2023-05-14T02:46:22.144Z,99.90
2023-05-14T02:48:49.023Z,99.90
2023-05-14T02:51:16.692Z,99.90
2023-05-14T02:53:43.597Z,99.90
2023-05-14T02:56:10.496Z,99.90
2023-05-14T02:58:37.470Z,99.90
2023-05-14T03:01:04.708Z,99.90
2023-05-14T03:03:32.024Z,99.90
2023-05-14T03:05:59.538Z,99.90
2023-05-14T03:08:26.401Z,99.90
2023-05-14T03:10:53.317Z,99.90
2023-05-14T03:13:20.886Z,99.90
2023-05-14T03:15:47.853Z,99.90
2023-05-14T03:18:15.191Z,99.90
2023-05-14T03:20:42.520Z,99.90
2023-05-14T03:23:09.406Z,99.90
2023-05-14T03:25:36.402Z,99.90
2023-05-14T03:28:03.872Z,99.90
2023-05-14T03:30:30.919Z,99.90
2023-05-14T03:32:58.205Z,99.90
2023-05-14T03:35:25.600Z,99.90
2023-05-14T03:37:53.167Z,99.90
2023-05-14T03:40:21.523Z,99.90
2023-05-14T03:42:48.679Z,99.90
2023-05-14T03:45:15.573Z,99.90
2023-05-14T03:47:42.624Z,99.90
2023-05-14T03:50:09.746Z,99.90
2023-05-14T03:52:36.695Z,99.90
2023-05-14T03:55:04.084Z,99.90
2023-05-14T03:57:31.176Z,99.90
2023-05-14T03:59:58.120Z,99.90
2023-05-14T04:02:25.599Z,99.90
2023-05-14T04:04:52.701Z,99.90
2023-05-14T04:07:19.718Z,99.90
2023-05-14T04:09:46.670Z,99.90
2023-05-14T04:12:13.621Z,99.90
2023-05-14T04:14:40.644Z,99.90
2023-05-14T04:17:07.562Z,99.90
2023-05-14T04:19:34.406Z,99.90
2023-05-14T04:22:01.305Z,99.90
2023-05-14T04:24:28.214Z,99.90
2023-05-14T04:26:55.103Z,99.90
2023-05-14T04:29:21.998Z,99.90
2023-05-14T04:31:50.041Z,99.90
2023-05-14T04:34:16.924Z,99.90
2023-05-14T04:36:43.778Z,99.90
2023-05-14T04:39:13.146Z,99.90
2023-05-14T04:41:40.292Z,99.90
2023-05-14T04:44:07.669Z,99.90
2023-05-14T04:46:34.711Z,99.90
2023-05-14T04:49:01.750Z,99.90
2023-05-14T04:51:28.692Z,99.90
2023-05-14T04:53:55.686Z,99.90
2023-05-14T04:56:22.548Z,99.90
2023-05-14T04:58:49.451Z,99.90
2023-05-14T05:01:16.667Z,99.90
2023-05-14T05:03:43.644Z,99.90
2023-05-14T05:06:10.670Z,99.90
2023-05-14T05:08:37.850Z,99.90
2023-05-14T05:11:05.219Z,99.90
2023-05-14T05:13:32.375Z,99.90
2023-05-14T05:15:59.567Z,99.90
2023-05-14T05:18:26.613Z,99.90
2023-05-14T05:20:53.643Z,99.90
2023-05-14T05:23:20.545Z,99.90
2023-05-14T05:25:47.429Z,99.90
2023-05-14T05:28:14.566Z,99.90
2023-05-14T05:30:41.589Z,99.90
2023-05-14T05:33:08.548Z,99.90
2023-05-14T05:35:35.514Z,99.90
2023-05-14T05:38:02.352Z,99.90
2023-05-14T05:40:29.451Z,99.90
2023-05-14T05:42:56.328Z,99.90
2023-05-14T05:45:23.354Z,99.90
2023-05-14T05:47:50.370Z,99.90
2023-05-14T05:50:18.844Z,99.90
2023-05-14T05:52:46.844Z,99.90
2023-05-14T05:55:13.765Z,99.90
2023-05-14T05:57:40.775Z,99.60
2023-05-14T06:00:13.253Z,99.30
2023-05-14T06:02:41.732Z,99.00
2023-05-14T06:05:10.209Z,98.80
2023-05-14T06:07:37.213Z,98.10
2023-05-14T06:10:05.000Z,97.20
2023-05-14T06:12:32.032Z,96.80
2023-05-14T06:14:59.033Z,96.50
2023-05-14T06:17:26.095Z,96.50
2023-05-14T06:19:53.408Z,96.40
2023-05-14T06:22:20.452Z,95.70
2023-05-14T06:24:48.128Z,95.70
2023-05-14T06:27:15.005Z,95.00
2023-05-14T06:29:41.944Z,94.60
2023-05-14T06:32:09.174Z,93.20
2023-05-14T06:34:36.067Z,92.50
2023-05-14T06:37:04.276Z,92.60
2023-05-14T06:39:31.225Z,91.40
2023-05-14T06:41:58.100Z,90.30
2023-05-14T06:44:25.085Z,90.70
2023-05-14T06:46:52.169Z,90.80
2023-05-14T06:49:19.159Z,91.00
2023-05-14T06:51:46.130Z,90.90
2023-05-14T06:54:13.368Z,91.60
2023-05-14T06:56:40.390Z,90.00
2023-05-14T06:59:07.271Z,90.00
2023-05-14T07:01:34.162Z,90.20
2023-05-14T07:04:01.115Z,90.00
2023-05-14T07:06:28.089Z,90.20
2023-05-14T07:08:55.271Z,87.60
2023-05-14T07:11:22.390Z,89.00
2023-05-14T07:13:49.459Z,88.70
2023-05-14T07:16:16.379Z,86.60
2023-05-14T07:18:43.998Z,85.70
2023-05-14T07:21:11.306Z,85.90
2023-05-14T07:23:41.077Z,83.90
2023-05-14T07:26:08.553Z,85.00
2023-05-14T07:28:35.672Z,84.10
2023-05-14T07:31:09.067Z,84.80
2023-05-14T07:33:36.671Z,83.20
2023-05-14T07:36:03.695Z,82.10
2023-05-14T07:38:31.241Z,81.20
2023-05-14T07:40:58.713Z,79.10
2023-05-14T07:43:25.888Z,80.50
2023-05-14T07:45:53.038Z,81.20
2023-05-14T07:48:20.062Z,81.20
2023-05-14T07:50:48.277Z,80.30
2023-05-14T07:53:15.450Z,81.20
2023-05-14T07:55:42.439Z,79.40
2023-05-14T07:58:09.513Z,78.50
2023-05-14T08:00:36.565Z,78.70
2023-05-14T08:03:03.714Z,79.20
2023-05-14T08:05:31.955Z,80.90
2023-05-14T08:07:58.894Z,79.50
2023-05-14T08:10:26.284Z,79.70
2023-05-14T08:12:53.456Z,77.60
2023-05-14T08:15:20.606Z,77.70
2023-05-14T08:17:47.537Z,75.30
2023-05-14T08:20:14.578Z,75.00
2023-05-14T08:22:41.431Z,76.20
2023-05-14T08:25:08.617Z,74.90
2023-05-14T08:27:35.486Z,75.80
2023-05-14T08:30:02.615Z,75.30
2023-05-14T08:32:29.959Z,75.80
2023-05-14T08:34:56.893Z,77.70
2023-05-14T08:37:23.847Z,77.30
2023-05-14T08:39:50.738Z,76.00
2023-05-14T08:42:21.941Z,75.50
2023-05-14T08:44:53.235Z,75.80
2023-05-14T08:47:22.264Z,78.10
2023-05-14T08:49:55.311Z,76.70
2023-05-14T08:52:23.183Z,76.10
2023-05-14T08:54:53.699Z,76.60
2023-05-14T08:57:23.839Z,74.50
2023-05-14T08:59:51.741Z,77.10
2023-05-14T09:02:24.477Z,74.70
2023-05-14T09:04:59.015Z,75.20
2023-05-14T09:07:26.596Z,74.10
2023-05-14T09:09:54.491Z,73.90
2023-05-14T09:12:22.273Z,74.40
2023-05-14T09:14:50.574Z,74.30
2023-05-14T09:17:18.705Z,72.40
2023-05-14T09:19:49.223Z,72.10
2023-05-14T09:22:17.917Z,73.70
2023-05-14T09:24:45.963Z,71.60
2023-05-14T09:27:22.240Z,71.90
2023-05-14T09:29:49.120Z,71.40
2023-05-14T09:32:16.106Z,71.30
2023-05-14T09:34:42.962Z,70.10
2023-05-14T09:37:10.089Z,72.60
2023-05-14T09:39:38.740Z,72.30
2023-05-14T09:42:06.179Z,71.40
2023-05-14T09:44:33.231Z,73.30
2023-05-14T09:47:00.170Z,71.50
2023-05-14T09:49:27.203Z,68.80
2023-05-14T09:51:54.102Z,70.90
2023-05-14T09:54:21.022Z,73.00
2023-05-14T09:56:47.912Z,70.00
2023-05-14T09:59:15.103Z,71.50
2023-05-14T10:01:44.294Z,71.30
2023-05-14T10:04:12.281Z,70.20
2023-05-14T10:06:40.318Z,69.90
2023-05-14T10:09:13.102Z,70.60
2023-05-14T10:11:44.100Z,71.20
2023-05-14T10:14:20.642Z,66.10
2023-05-14T10:16:53.070Z,68.90
2023-05-14T10:19:22.946Z,68.60
2023-05-14T10:21:57.263Z,68.60
2023-05-14T10:24:25.762Z,71.20
2023-05-14T10:26:53.570Z,71.40
2023-05-14T10:29:20.790Z,71.10
2023-05-14T10:31:47.811Z,70.50
2023-05-14T10:34:38.040Z,70.70
2023-05-14T10:37:13.842Z,72.10
2023-05-14T10:39:48.171Z,73.60
2023-05-14T10:42:37.593Z,72.40
2023-05-14T10:45:08.238Z,72.70
2023-05-14T10:47:37.889Z,72.80
2023-05-14T10:50:07.450Z,74.30
2023-05-14T10:52:35.480Z,73.30
2023-05-14T10:55:10.251Z,73.50
2023-05-14T10:57:38.065Z,73.10
2023-05-14T11:00:10.856Z,72.20
2023-05-14T11:02:40.114Z,74.10
2023-05-14T11:05:09.424Z,74.10
2023-05-14T11:07:42.497Z,73.60
2023-05-14T11:10:14.892Z,73.50
2023-05-14T11:12:46.884Z,74.10
2023-05-14T11:15:16.111Z,74.20
2023-05-14T11:17:44.879Z,73.50
2023-05-14T11:20:13.177Z,73.30
2023-05-14T11:22:41.766Z,75.20
2023-05-14T11:25:09.862Z,74.80
2023-05-14T11:27:40.623Z,75.40
2023-05-14T11:30:13.675Z,74.30
2023-05-14T11:32:41.644Z,73.30
2023-05-14T11:35:09.073Z,74.30
2023-05-14T11:37:36.062Z,73.90
2023-05-14T11:40:03.312Z,75.40
2023-05-14T11:42:30.424Z,74.10
2023-05-14T11:44:57.444Z,75.10
2023-05-14T11:47:24.390Z,74.80
2023-05-14T11:49:51.341Z,75.70
2023-05-14T11:52:19.705Z,76.10
2023-05-14T11:54:47.145Z,76.20
2023-05-14T11:57:20.137Z,77.00
2023-05-14T11:59:48.267Z,75.60
2023-05-14T12:02:19.844Z,75.30
2023-05-14T12:04:52.219Z,76.10
2023-05-14T12:07:19.576Z,75.50
2023-05-14T12:09:50.151Z,76.90
2023-05-14T12:12:23.357Z,75.50
2023-05-14T12:14:51.205Z,72.60
2023-05-14T12:17:20.931Z,74.00
2023-05-14T12:19:50.452Z,73.70
2023-05-14T12:22:22.519Z,72.90
2023-05-14T12:24:55.822Z,73.50
2023-05-14T12:27:26.931Z,74.40
2023-05-14T12:30:19.001Z,74.40
2023-05-14T12:32:51.826Z,73.30
2023-05-14T12:35:19.239Z,73.80
2023-05-14T12:37:46.467Z,73.10
2023-05-14T12:40:13.595Z,72.90
2023-05-14T12:42:40.527Z,71.00
2023-05-14T12:45:08.760Z,72.30
2023-05-14T12:47:37.184Z,73.10
2023-05-14T12:50:04.999Z,73.60
2023-05-14T12:55:01.800Z,71.60
2023-05-14T12:57:30.226Z,69.20
2023-05-14T12:59:57.772Z,71.30
2023-05-14T13:02:24.639Z,72.80
2023-05-14T13:04:51.517Z,72.40
2023-05-14T13:07:18.683Z,71.20
2023-05-14T13:09:45.603Z,71.10
2023-05-14T13:12:12.524Z,71.50
2023-05-14T13:14:39.372Z,71.30
2023-05-14T13:17:08.182Z,72.00
2023-05-14T13:19:35.487Z,71.90
2023-05-14T13:22:02.726Z,72.70
2023-05-14T13:24:29.701Z,73.40
2023-05-14T13:26:56.740Z,72.40
2023-05-14T13:29:24.691Z,73.70
2023-05-14T13:31:51.807Z,73.60
2023-05-14T13:34:19.009Z,74.40
2023-05-14T13:36:47.327Z,74.00
2023-05-14T13:39:14.649Z,74.60
2023-05-14T13:41:42.236Z,74.70
2023-05-14T13:44:09.241Z,75.50
2023-05-14T13:46:36.325Z,74.60
2023-05-14T13:49:03.407Z,75.20
2023-05-14T13:51:31.317Z,75.70
2023-05-14T13:53:58.257Z,77.10
2023-05-14T13:56:25.206Z,77.40
2023-05-14T13:58:52.957Z,78.20
2023-05-14T14:01:20.039Z,78.70
2023-05-14T14:03:47.080Z,78.70
2023-05-14T14:06:14.177Z,78.50
2023-05-14T14:08:43.764Z,79.40
2023-05-14T14:11:10.878Z,77.90
2023-05-14T14:13:37.844Z,76.60
2023-05-14T14:16:06.360Z,75.60
2023-05-14T14:18:33.983Z,78.30
2023-05-14T14:21:00.954Z,77.30
2023-05-14T14:23:27.833Z,75.80
2023-05-14T14:25:54.786Z,74.00
2023-05-14T14:28:21.698Z,74.30
2023-05-14T14:30:48.896Z,75.20
2023-05-14T14:33:16.049Z,75.30
2023-05-14T14:35:43.014Z,77.00
2023-05-14T14:38:09.902Z,78.30
2023-05-14T14:40:36.912Z,77.70
2023-05-14T14:43:03.791Z,78.10
2023-05-14T14:45:30.924Z,76.80
2023-05-14T14:48:27.265Z,77.70
2023-05-14T14:50:55.214Z,77.40
2023-05-14T14:53:22.890Z,78.10
2023-05-14T14:55:50.772Z,78.40
2023-05-14T14:58:19.547Z,78.10
2023-05-14T15:00:47.163Z,78.30
2023-05-14T15:03:15.307Z,77.90
2023-05-14T15:05:42.818Z,78.60
2023-05-14T15:08:10.337Z,79.30
2023-05-14T15:10:38.433Z,79.10
2023-05-14T15:13:06.495Z,79.80
2023-05-14T15:15:34.382Z,80.40
2023-05-14T15:18:01.650Z,80.50
2023-05-14T15:20:28.684Z,80.90
2023-05-14T15:22:56.448Z,81.40
2023-05-14T15:25:24.348Z,81.80
2023-05-14T15:27:51.475Z,81.60
2023-05-14T15:30:19.632Z,80.90
2023-05-14T15:32:46.921Z,81.40
2023-05-14T15:35:14.220Z,81.70
2023-05-14T15:37:43.064Z,81.70
2023-05-14T15:40:11.143Z,81.70
2023-05-14T15:42:42.356Z,82.20
2023-05-14T15:45:10.631Z,81.90
2023-05-14T15:47:37.820Z,82.10
2023-05-14T15:50:05.465Z,82.30
2023-05-14T15:52:32.557Z,82.60
2023-05-14T15:54:59.745Z,83.50
2023-05-14T15:57:27.699Z,83.30
2023-05-14T15:59:54.736Z,82.30
2023-05-14T16:02:21.560Z,82.30
2023-05-14T16:04:49.666Z,82.70
2023-05-14T16:07:16.807Z,83.00
2023-05-14T16:09:43.811Z,81.80
2023-05-14T16:12:10.828Z,82.50
2023-05-14T16:14:38.611Z,82.70
2023-05-14T16:17:07.586Z,82.20
2023-05-14T16:19:34.432Z,81.80
2023-05-14T16:22:01.433Z,81.70
2023-05-14T16:24:28.329Z,82.10
2023-05-14T16:26:55.455Z,81.90
2023-05-14T16:29:22.514Z,80.70
2023-05-14T16:31:49.554Z,81.60
2023-05-14T16:34:16.566Z,80.90
2023-05-14T16:36:43.638Z,81.00
2023-05-14T16:39:11.751Z,81.30
2023-05-14T16:41:38.644Z,80.40
2023-05-14T16:44:05.546Z,80.80
2023-05-14T16:46:33.080Z,80.90
2023-05-14T16:49:00.138Z,81.00
2023-05-14T16:51:26.951Z,81.50
2023-05-14T16:53:55.485Z,81.60
2023-05-14T16:56:22.781Z,81.90
2023-05-14T16:58:49.916Z,81.60
2023-05-14T17:01:16.845Z,81.80
2023-05-14T17:03:45.665Z,82.10
2023-05-14T17:06:12.747Z,81.90
2023-05-14T17:08:39.777Z,82.00
2023-05-14T17:11:06.721Z,82.20
2023-05-14T17:13:34.163Z,82.60
2023-05-14T17:16:01.869Z,82.20
2023-05-14T17:18:29.158Z,82.50
2023-05-14T17:20:56.190Z,82.10
2023-05-14T17:23:23.276Z,82.60
2023-05-14T17:25:50.513Z,82.70
2023-05-14T17:28:17.544Z,82.40
2023-05-14T17:30:44.524Z,82.60
2023-05-14T17:33:11.815Z,82.20
2023-05-14T17:35:39.047Z,82.00
2023-05-14T17:38:06.076Z,81.70
2023-05-14T17:40:33.613Z,82.00
2023-05-14T17:43:00.750Z,82.40
2023-05-14T17:45:30.627Z,82.00
2023-05-14T17:48:01.290Z,82.30
2023-05-14T17:50:28.574Z,82.40
2023-05-14T17:52:56.761Z,82.50
2023-05-14T17:55:24.173Z,81.90
2023-05-14T17:57:51.359Z,82.10
2023-05-14T18:00:18.460Z,82.50
2023-05-14T18:02:45.526Z,82.50
2023-05-14T18:05:12.560Z,82.40
2023-05-14T18:07:39.700Z,82.80
2023-05-14T18:10:07.195Z,83.00
2023-05-14T18:12:34.272Z,83.30
2023-05-14T18:15:01.164Z,83.40
2023-05-14T18:17:28.103Z,83.70
2023-05-14T18:19:55.010Z,83.90
2023-05-14T18:22:22.425Z,84.00
2023-05-14T18:24:49.303Z,84.20
2023-05-14T18:27:16.273Z,84.50
2023-05-14T18:29:43.470Z,84.70
2023-05-14T18:32:10.340Z,85.00
2023-05-14T18:34:37.275Z,85.10
2023-05-14T18:37:04.441Z,85.60
2023-05-14T18:39:31.282Z,86.00
2023-05-14T18:41:58.195Z,86.50
2023-05-14T18:44:25.264Z,86.90
2023-05-14T18:46:52.870Z,87.50
2023-05-14T18:49:19.842Z,88.00
2023-05-14T18:51:46.822Z,88.60
2023-05-14T18:54:13.710Z,88.80
2023-05-14T18:56:45.509Z,89.30
2023-05-14T18:59:14.354Z,89.70
2023-05-14T19:01:41.308Z,90.00
2023-05-14T19:04:08.512Z,90.20
2023-05-14T19:06:36.302Z,90.50
2023-05-14T19:09:04.368Z,90.80
2023-05-14T19:11:31.288Z,90.90
2023-05-14T19:13:58.221Z,91.20
2023-05-14T19:16:25.312Z,91.30
2023-05-14T19:18:52.617Z,91.50
2023-05-14T19:21:19.687Z,91.60
2023-05-14T19:23:46.675Z,91.70
2023-05-14T19:26:13.575Z,91.90
2023-05-14T19:28:40.701Z,91.90
2023-05-14T19:31:07.611Z,91.90
2023-05-14T19:33:34.548Z,92.10
2023-05-14T19:36:01.561Z,92.10
2023-05-14T19:38:29.737Z,92.10
2023-05-14T19:40:57.176Z,92.10
2023-05-14T19:43:25.691Z,92.30
2023-05-14T19:45:52.817Z,92.10
2023-05-14T19:48:19.861Z,92.10
2023-05-14T19:50:47.398Z,92.50
2023-05-14T19:53:14.480Z,92.50
2023-05-14T19:55:41.869Z,92.70
2023-05-14T19:58:09.007Z,92.90
2023-05-14T20:00:37.107Z,93.10
2023-05-14T20:03:05.989Z,93.20
2023-05-14T20:05:34.399Z,93.50
2023-05-14T20:08:01.384Z,93.50
2023-05-14T20:10:28.646Z,93.60
2023-05-14T20:12:55.727Z,93.80
2023-05-14T20:15:22.668Z,93.90
2023-05-14T20:17:49.740Z,93.90
2023-05-14T20:20:16.924Z,93.80
2023-05-14T20:22:44.173Z,93.70
2023-05-14T20:25:11.238Z,93.70
2023-05-14T20:27:38.271Z,93.70
2023-05-14T20:30:06.124Z,93.70
2023-05-14T20:32:33.229Z,93.50
2023-05-14T20:35:02.241Z,93.40
2023-05-14T20:37:30.572Z,93.50
2023-05-14T20:39:57.529Z,93.60
2023-05-14T20:42:25.080Z,93.90
2023-05-14T20:44:53.057Z,93.90
2023-05-14T20:47:23.390Z,94.00
2023-05-14T20:49:51.330Z,93.70
2023-05-14T20:52:19.111Z,93.90
2023-05-14T20:54:46.231Z,93.70
2023-05-14T20:57:15.338Z,93.50
2023-05-14T20:59:42.669Z,93.40
2023-05-14T21:02:09.832Z,93.20
2023-05-14T21:04:36.914Z,93.30
2023-05-14T21:07:05.545Z,93.20
2023-05-14T21:09:32.560Z,93.20
2023-05-14T21:11:59.557Z,93.10
2023-05-14T21:14:26.620Z,93.30
2023-05-14T21:16:53.541Z,93.30
2023-05-14T21:19:20.545Z,93.20
2023-05-14T21:21:47.578Z,93.10
2023-05-14T21:24:16.861Z,92.80
2023-05-14T21:26:43.900Z,93.10
2023-05-14T21:29:11.470Z,93.10
2023-05-14T21:31:38.522Z,93.10
2023-05-14T21:34:05.885Z,93.20
2023-05-14T21:36:32.934Z,93.10
2023-05-14T21:39:00.063Z,93.10
2023-05-14T21:41:27.026Z,93.40
2023-05-14T21:43:53.919Z,93.40
2023-05-14T21:46:20.952Z,93.50
2023-05-14T21:48:48.004Z,93.50
2023-05-14T21:51:15.155Z,93.50
2023-05-14T21:53:42.030Z,93.50
2023-05-14T21:56:08.931Z,93.40
2023-05-14T21:58:36.369Z,93.40
2023-05-14T22:01:03.360Z,93.50
2023-05-14T22:03:30.487Z,93.50
2023-05-14T22:05:57.829Z,93.40
2023-05-14T22:08:24.748Z,93.30
2023-05-14T22:10:51.650Z,93.30
2023-05-14T22:13:18.662Z,93.40
2023-05-14T22:15:45.723Z,93.50
2023-05-14T22:18:13.124Z,93.60
2023-05-14T22:20:40.247Z,93.50
2023-05-14T22:23:07.276Z,93.50
2023-05-14T22:25:34.395Z,93.60
2023-05-14T22:28:01.350Z,93.70
2023-05-14T22:30:28.348Z,93.80
2023-05-14T22:32:55.424Z,93.80
2023-05-14T22:35:22.684Z,94.00
2023-05-14T22:37:49.717Z,94.10
2023-05-14T22:40:16.798Z,94.00
2023-05-14T22:42:43.811Z,94.40
2023-05-14T22:45:11.120Z,94.30
2023-05-14T22:47:38.648Z,94.20
2023-05-14T22:50:11.276Z,94.40
2023-05-14T22:52:39.188Z,94.40
2023-05-14T22:55:06.811Z,94.30
2023-05-14T22:57:34.580Z,94.60
2023-05-14T23:00:01.629Z,94.70
2023-05-14T23:02:28.517Z,94.70
2023-05-14T23:04:55.610Z,94.70
2023-05-14T23:07:22.903Z,94.80
2023-05-14T23:09:49.905Z,94.80
2023-05-14T23:12:16.886Z,94.90
2023-05-14T23:14:43.802Z,95.10
2023-05-14T23:17:10.771Z,95.30
2023-05-14T23:19:37.782Z,95.00
2023-05-14T23:22:04.928Z,95.00
2023-05-14T23:24:31.865Z,95.10
2023-05-14T23:26:58.843Z,94.90
2023-05-14T23:29:25.855Z,95.00
2023-05-14T23:31:52.900Z,95.10
2023-05-14T23:34:19.815Z,95.20
2023-05-14T23:36:46.736Z,95.40
2023-05-14T23:39:13.724Z,95.60
2023-05-14T23:41:40.680Z,95.70
2023-05-14T23:44:07.640Z,95.70
2023-05-14T23:46:35.509Z,95.60
2023-05-14T23:49:02.506Z,95.70
2023-05-14T23:51:29.507Z,95.80
2023-05-14T23:53:58.680Z,96.00
2023-05-14T23:56:29.170Z,96.00
2023-05-14T23:58:56.471Z,95.90
